sensor_id;sensor_type;location;lat;lon;timestamp;P1;durP1;ratioP1;P2;durP2;ratioP2
7487;SDS011;3785;52.260;4.728;2023-05-23T00:01:34;11.77;;;6.40;;
7487;SDS011;3785;52.260;4.728;2023-05-23T00:04:56;9.30;;;5.60;;
7487;SDS011;3785;52.260;4.728;2023-05-23T00:08:17;9.25;;;5.25;;
7487;SDS011;3785;52.260;4.728;2023-05-23T00:11:38;9.90;;;4.78;;
7487;SDS011;3785;52.260;4.728;2023-05-23T00:14:58;10.00;;;5.03;;
7487;SDS011;3785;52.260;4.728;2023-05-23T00:18:19;10.80;;;4.88;;
7487;SDS011;3785;52.260;4.728;2023-05-23T00:21:44;10.40;;;4.40;;
7487;SDS011;3785;52.260;4.728;2023-05-23T00:25:08;7.80;;;4.55;;
7487;SDS011;3785;52.260;4.728;2023-05-23T00:28:29;7.80;;;5.00;;
7487;SDS011;3785;52.260;4.728;2023-05-23T00:31:50;11.13;;;4.90;;
7487;SDS011;3785;52.260;4.728;2023-05-23T00:35:11;8.57;;;5.25;;
7487;SDS011;3785;52.260;4.728;2023-05-23T00:38:31;6.97;;;4.28;;
7487;SDS011;3785;52.260;4.728;2023-05-23T00:41:52;7.55;;;4.63;;
7487;SDS011;3785;52.260;4.728;2023-05-23T00:45:12;7.78;;;4.15;;
7487;SDS011;3785;52.260;4.728;2023-05-23T00:48:33;6.43;;;4.03;;
7487;SDS011;3785;52.260;4.728;2023-05-23T00:51:54;8.02;;;4.97;;
7487;SDS011;3785;52.260;4.728;2023-05-23T00:55:15;7.30;;;4.38;;
7487;SDS011;3785;52.260;4.728;2023-05-23T00:58:35;11.00;;;4.75;;
7487;SDS011;3785;52.260;4.728;2023-05-23T01:01:56;13.23;;;5.05;;
7487;SDS011;3785;52.260;4.728;2023-05-23T01:05:17;7.00;;;4.40;;
7487;SDS011;3785;52.260;4.728;2023-05-23T01:08:39;10.40;;;4.90;;
7487;SDS011;3785;52.260;4.728;2023-05-23T01:12:24;7.30;;;4.07;;
7487;SDS011;3785;52.260;4.728;2023-05-23T01:16:19;11.95;;;4.22;;
7487;SDS011;3785;52.260;4.728;2023-05-23T01:19:58;14.15;;;5.00;;
7487;SDS011;3785;52.260;4.728;2023-05-23T01:23:40;10.25;;;4.22;;
7487;SDS011;3785;52.260;4.728;2023-05-23T01:30:40;11.30;;;4.50;;
7487;SDS011;3785;52.260;4.728;2023-05-23T01:34:04;8.75;;;4.28;;
7487;SDS011;3785;52.260;4.728;2023-05-23T01:37:25;9.02;;;4.18;;
7487;SDS011;3785;52.260;4.728;2023-05-23T01:40:45;7.95;;;4.38;;
7487;SDS011;3785;52.260;4.728;2023-05-23T01:44:06;9.27;;;3.97;;
7487;SDS011;3785;52.260;4.728;2023-05-23T01:47:27;9.45;;;4.45;;
7487;SDS011;3785;52.260;4.728;2023-05-23T01:50:48;9.13;;;4.15;;
7487;SDS011;3785;52.260;4.728;2023-05-23T01:54:09;10.75;;;3.53;;
7487;SDS011;3785;52.260;4.728;2023-05-23T01:57:31;9.85;;;3.65;;
7487;SDS011;3785;52.260;4.728;2023-05-23T02:00:52;12.23;;;4.22;;
7487;SDS011;3785;52.260;4.728;2023-05-23T02:04:13;9.65;;;4.05;;
7487;SDS011;3785;52.260;4.728;2023-05-23T02:07:33;11.95;;;3.63;;
7487;SDS011;3785;52.260;4.728;2023-05-23T02:10:54;7.03;;;3.67;;
7487;SDS011;3785;52.260;4.728;2023-05-23T02:14:14;10.30;;;4.47;;
7487;SDS011;3785;52.260;4.728;2023-05-23T02:17:35;8.15;;;3.83;;
7487;SDS011;3785;52.260;4.728;2023-05-23T02:20:57;8.70;;;3.85;;
7487;SDS011;3785;52.260;4.728;2023-05-23T02:24:18;8.88;;;4.25;;
7487;SDS011;3785;52.260;4.728;2023-05-23T02:27:39;10.15;;;3.72;;
7487;SDS011;3785;52.260;4.728;2023-05-23T02:31:00;9.60;;;3.20;;
7487;SDS011;3785;52.260;4.728;2023-05-23T02:34:21;7.85;;;3.40;;
7487;SDS011;3785;52.260;4.728;2023-05-23T02:37:42;7.75;;;3.35;;
7487;SDS011;3785;52.260;4.728;2023-05-23T02:41:03;7.47;;;3.45;;
7487;SDS011;3785;52.260;4.728;2023-05-23T02:44:23;5.25;;;2.70;;
7487;SDS011;3785;52.260;4.728;2023-05-23T02:47:44;4.05;;;2.30;;
7487;SDS011;3785;52.260;4.728;2023-05-23T02:51:05;8.90;;;2.60;;
7487;SDS011;3785;52.260;4.728;2023-05-23T02:54:25;6.03;;;2.70;;
7487;SDS011;3785;52.260;4.728;2023-05-23T02:57:46;6.53;;;2.42;;
7487;SDS011;3785;52.260;4.728;2023-05-23T03:01:06;6.57;;;2.17;;
7487;SDS011;3785;52.260;4.728;2023-05-23T03:04:30;6.70;;;2.13;;
7487;SDS011;3785;52.260;4.728;2023-05-23T03:07:51;4.15;;;2.08;;
7487;SDS011;3785;52.260;4.728;2023-05-23T03:11:13;4.22;;;2.03;;
7487;SDS011;3785;52.260;4.728;2023-05-23T03:14:33;5.85;;;2.10;;
7487;SDS011;3785;52.260;4.728;2023-05-23T03:17:54;4.28;;;2.03;;
7487;SDS011;3785;52.260;4.728;2023-05-23T03:21:15;3.83;;;2.00;;
7487;SDS011;3785;52.260;4.728;2023-05-23T03:24:35;7.45;;;2.22;;
7487;SDS011;3785;52.260;4.728;2023-05-23T03:27:56;6.80;;;2.22;;
7487;SDS011;3785;52.260;4.728;2023-05-23T03:31:17;4.97;;;1.80;;
7487;SDS011;3785;52.260;4.728;2023-05-23T03:34:37;5.25;;;1.92;;
7487;SDS011;3785;52.260;4.728;2023-05-23T03:37:58;6.65;;;1.90;;
7487;SDS011;3785;52.260;4.728;2023-05-23T03:41:18;6.55;;;1.60;;
7487;SDS011;3785;52.260;4.728;2023-05-23T03:44:39;6.50;;;2.25;;
7487;SDS011;3785;52.260;4.728;2023-05-23T03:47:59;6.15;;;2.08;;
7487;SDS011;3785;52.260;4.728;2023-05-23T03:51:20;5.07;;;2.00;;
7487;SDS011;3785;52.260;4.728;2023-05-23T03:54:41;5.15;;;2.00;;
7487;SDS011;3785;52.260;4.728;2023-05-23T03:58:01;6.28;;;2.58;;
7487;SDS011;3785;52.260;4.728;2023-05-23T04:01:22;4.18;;;1.92;;
7487;SDS011;3785;52.260;4.728;2023-05-23T04:04:43;7.95;;;3.00;;
7487;SDS011;3785;52.260;4.728;2023-05-23T04:08:05;5.50;;;2.72;;
7487;SDS011;3785;52.260;4.728;2023-05-23T04:11:27;5.80;;;2.83;;
7487;SDS011;3785;52.260;4.728;2023-05-23T04:14:47;5.70;;;2.80;;
7487;SDS011;3785;52.260;4.728;2023-05-23T04:18:09;5.20;;;2.60;;
7487;SDS011;3785;52.260;4.728;2023-05-23T04:21:29;6.47;;;2.80;;
7487;SDS011;3785;52.260;4.728;2023-05-23T04:24:50;6.80;;;3.00;;
7487;SDS011;3785;52.260;4.728;2023-05-23T04:28:11;9.05;;;3.38;;
7487;SDS011;3785;52.260;4.728;2023-05-23T04:31:31;7.10;;;3.00;;
7487;SDS011;3785;52.260;4.728;2023-05-23T04:34:53;8.07;;;3.00;;
7487;SDS011;3785;52.260;4.728;2023-05-23T04:38:15;8.82;;;2.67;;
7487;SDS011;3785;52.260;4.728;2023-05-23T04:41:36;8.18;;;2.97;;
7487;SDS011;3785;52.260;4.728;2023-05-23T04:44:57;7.53;;;3.30;;
7487;SDS011;3785;52.260;4.728;2023-05-23T04:48:18;10.80;;;3.75;;
7487;SDS011;3785;52.260;4.728;2023-05-23T04:51:40;7.15;;;3.60;;
7487;SDS011;3785;52.260;4.728;2023-05-23T04:55:01;6.13;;;3.38;;
7487;SDS011;3785;52.260;4.728;2023-05-23T04:58:22;7.85;;;3.70;;
7487;SDS011;3785;52.260;4.728;2023-05-23T05:01:43;6.00;;;3.25;;
7487;SDS011;3785;52.260;4.728;2023-05-23T05:05:04;8.30;;;3.47;;
7487;SDS011;3785;52.260;4.728;2023-05-23T05:08:25;5.13;;;3.15;;
7487;SDS011;3785;52.260;4.728;2023-05-23T05:11:45;7.68;;;3.28;;
7487;SDS011;3785;52.260;4.728;2023-05-23T05:15:06;7.53;;;2.75;;
7487;SDS011;3785;52.260;4.728;2023-05-23T05:18:27;5.45;;;2.95;;
7487;SDS011;3785;52.260;4.728;2023-05-23T05:21:48;7.18;;;3.65;;
7487;SDS011;3785;52.260;4.728;2023-05-23T05:25:09;7.15;;;2.72;;
7487;SDS011;3785;52.260;4.728;2023-05-23T05:28:30;7.88;;;2.92;;
7487;SDS011;3785;52.260;4.728;2023-05-23T05:31:51;6.38;;;3.33;;
7487;SDS011;3785;52.260;4.728;2023-05-23T05:35:12;5.43;;;2.80;;
7487;SDS011;3785;52.260;4.728;2023-05-23T05:38:35;7.05;;;3.15;;
7487;SDS011;3785;52.260;4.728;2023-05-23T05:41:56;6.22;;;2.90;;
7487;SDS011;3785;52.260;4.728;2023-05-23T05:45:18;5.03;;;2.90;;
7487;SDS011;3785;52.260;4.728;2023-05-23T05:48:38;6.20;;;2.50;;
7487;SDS011;3785;52.260;4.728;2023-05-23T05:51:59;6.05;;;2.30;;
7487;SDS011;3785;52.260;4.728;2023-05-23T05:55:19;5.22;;;1.67;;
7487;SDS011;3785;52.260;4.728;2023-05-23T05:58:40;7.50;;;1.80;;
7487;SDS011;3785;52.260;4.728;2023-05-23T06:02:01;2.50;;;1.63;;
7487;SDS011;3785;52.260;4.728;2023-05-23T06:05:22;2.80;;;1.65;;
7487;SDS011;3785;52.260;4.728;2023-05-23T06:08:42;3.95;;;1.30;;
7487;SDS011;3785;52.260;4.728;2023-05-23T06:12:03;4.68;;;1.20;;
7487;SDS011;3785;52.260;4.728;2023-05-23T06:15:24;3.05;;;1.10;;
7487;SDS011;3785;52.260;4.728;2023-05-23T06:18:45;4.13;;;1.45;;
7487;SDS011;3785;52.260;4.728;2023-05-23T06:22:05;4.93;;;1.60;;
7487;SDS011;3785;52.260;4.728;2023-05-23T06:25:26;3.28;;;1.00;;
7487;SDS011;3785;52.260;4.728;2023-05-23T06:28:46;2.92;;;1.20;;
7487;SDS011;3785;52.260;4.728;2023-05-23T06:32:07;4.35;;;1.20;;
7487;SDS011;3785;52.260;4.728;2023-05-23T06:35:28;5.25;;;1.42;;
7487;SDS011;3785;52.260;4.728;2023-05-23T06:38:48;6.22;;;1.25;;
7487;SDS011;3785;52.260;4.728;2023-05-23T06:42:09;4.78;;;1.20;;
7487;SDS011;3785;52.260;4.728;2023-05-23T06:45:29;3.58;;;1.20;;
7487;SDS011;3785;52.260;4.728;2023-05-23T06:48:50;6.40;;;1.15;;
7487;SDS011;3785;52.260;4.728;2023-05-23T06:52:10;5.28;;;1.50;;
7487;SDS011;3785;52.260;4.728;2023-05-23T06:55:31;3.70;;;1.27;;
7487;SDS011;3785;52.260;4.728;2023-05-23T06:58:52;8.57;;;2.05;;
7487;SDS011;3785;52.260;4.728;2023-05-23T07:02:13;5.30;;;1.55;;
7487;SDS011;3785;52.260;4.728;2023-05-23T07:05:33;6.95;;;1.30;;
7487;SDS011;3785;52.260;4.728;2023-05-23T07:08:55;4.50;;;1.40;;
7487;SDS011;3785;52.260;4.728;2023-05-23T07:12:16;3.60;;;1.05;;
7487;SDS011;3785;52.260;4.728;2023-05-23T07:15:36;4.68;;;1.40;;
7487;SDS011;3785;52.260;4.728;2023-05-23T07:18:57;4.82;;;1.30;;
7487;SDS011;3785;52.260;4.728;2023-05-23T07:22:20;7.55;;;1.88;;
7487;SDS011;3785;52.260;4.728;2023-05-23T07:25:40;4.78;;;1.65;;
7487;SDS011;3785;52.260;4.728;2023-05-23T07:29:01;3.97;;;1.30;;
7487;SDS011;3785;52.260;4.728;2023-05-23T07:32:22;5.97;;;1.40;;
7487;SDS011;3785;52.260;4.728;2023-05-23T07:35:43;4.72;;;1.45;;
7487;SDS011;3785;52.260;4.728;2023-05-23T07:39:03;5.07;;;1.33;;
7487;SDS011;3785;52.260;4.728;2023-05-23T07:42:24;4.97;;;1.30;;
7487;SDS011;3785;52.260;4.728;2023-05-23T07:45:44;4.55;;;1.48;;
7487;SDS011;3785;52.260;4.728;2023-05-23T07:49:05;4.05;;;1.30;;
7487;SDS011;3785;52.260;4.728;2023-05-23T07:52:26;8.60;;;1.65;;
7487;SDS011;3785;52.260;4.728;2023-05-23T07:55:48;5.88;;;1.52;;
7487;SDS011;3785;52.260;4.728;2023-05-23T07:59:08;6.35;;;1.30;;
7487;SDS011;3785;52.260;4.728;2023-05-23T08:02:29;6.88;;;1.50;;
7487;SDS011;3785;52.260;4.728;2023-05-23T08:05:50;4.22;;;1.15;;
7487;SDS011;3785;52.260;4.728;2023-05-23T08:09:10;4.93;;;1.58;;
7487;SDS011;3785;52.260;4.728;2023-05-23T08:12:31;4.88;;;1.48;;
7487;SDS011;3785;52.260;4.728;2023-05-23T08:15:51;4.45;;;1.67;;
7487;SDS011;3785;52.260;4.728;2023-05-23T08:19:12;9.35;;;1.77;;
7487;SDS011;3785;52.260;4.728;2023-05-23T08:22:33;5.28;;;1.30;;
7487;SDS011;3785;52.260;4.728;2023-05-23T08:25:54;8.95;;;1.50;;
7487;SDS011;3785;52.260;4.728;2023-05-23T08:29:16;7.72;;;1.52;;
7487;SDS011;3785;52.260;4.728;2023-05-23T08:32:37;4.47;;;1.33;;
7487;SDS011;3785;52.260;4.728;2023-05-23T08:35:58;5.63;;;1.90;;
7487;SDS011;3785;52.260;4.728;2023-05-23T08:39:18;5.82;;;1.90;;
7487;SDS011;3785;52.260;4.728;2023-05-23T08:42:39;6.03;;;1.67;;
7487;SDS011;3785;52.260;4.728;2023-05-23T08:45:59;9.02;;;1.95;;
7487;SDS011;3785;52.260;4.728;2023-05-23T08:49:20;4.80;;;1.52;;
7487;SDS011;3785;52.260;4.728;2023-05-23T08:52:42;3.75;;;1.15;;
7487;SDS011;3785;52.260;4.728;2023-05-23T08:56:12;7.18;;;1.90;;
7487;SDS011;3785;52.260;4.728;2023-05-23T08:59:32;6.13;;;1.92;;
7487;SDS011;3785;52.260;4.728;2023-05-23T09:02:55;5.28;;;1.48;;
7487;SDS011;3785;52.260;4.728;2023-05-23T09:06:16;5.50;;;1.60;;
7487;SDS011;3785;52.260;4.728;2023-05-23T09:09:41;5.95;;;1.65;;
7487;SDS011;3785;52.260;4.728;2023-05-23T09:13:02;5.60;;;1.55;;
7487;SDS011;3785;52.260;4.728;2023-05-23T09:16:26;6.38;;;1.80;;
7487;SDS011;3785;52.260;4.728;2023-05-23T09:19:51;4.80;;;1.63;;
7487;SDS011;3785;52.260;4.728;2023-05-23T09:23:12;5.93;;;1.58;;
7487;SDS011;3785;52.260;4.728;2023-05-23T09:26:33;6.63;;;1.52;;
7487;SDS011;3785;52.260;4.728;2023-05-23T09:29:53;4.28;;;1.50;;
7487;SDS011;3785;52.260;4.728;2023-05-23T09:33:14;3.78;;;1.52;;
7487;SDS011;3785;52.260;4.728;2023-05-23T09:36:35;7.20;;;1.70;;
7487;SDS011;3785;52.260;4.728;2023-05-23T09:40:00;4.18;;;1.20;;
7487;SDS011;3785;52.260;4.728;2023-05-23T09:43:25;6.82;;;1.40;;
7487;SDS011;3785;52.260;4.728;2023-05-23T09:46:47;4.97;;;1.33;;
7487;SDS011;3785;52.260;4.728;2023-05-23T09:50:12;3.53;;;1.45;;
7487;SDS011;3785;52.260;4.728;2023-05-23T09:53:33;4.18;;;1.58;;
7487;SDS011;3785;52.260;4.728;2023-05-23T09:56:54;4.45;;;1.38;;
7487;SDS011;3785;52.260;4.728;2023-05-23T10:00:15;4.45;;;1.35;;
7487;SDS011;3785;52.260;4.728;2023-05-23T10:03:50;7.18;;;1.83;;
7487;SDS011;3785;52.260;4.728;2023-05-23T10:07:18;6.05;;;1.20;;
7487;SDS011;3785;52.260;4.728;2023-05-23T10:14:34;3.70;;;1.17;;
7487;SDS011;3785;52.260;4.728;2023-05-23T10:21:29;8.65;;;1.83;;
7487;SDS011;3785;52.260;4.728;2023-05-23T10:24:55;5.75;;;1.50;;
7487;SDS011;3785;52.260;4.728;2023-05-23T10:28:15;7.40;;;1.80;;
7487;SDS011;3785;52.260;4.728;2023-05-23T10:31:36;6.30;;;1.63;;
7487;SDS011;3785;52.260;4.728;2023-05-23T10:35:05;4.47;;;1.60;;
7487;SDS011;3785;52.260;4.728;2023-05-23T10:38:35;4.97;;;1.20;;
7487;SDS011;3785;52.260;4.728;2023-05-23T10:42:12;8.80;;;1.27;;
7487;SDS011;3785;52.260;4.728;2023-05-23T10:45:40;5.45;;;1.20;;
7487;SDS011;3785;52.260;4.728;2023-05-23T10:49:04;4.63;;;1.13;;
7487;SDS011;3785;52.260;4.728;2023-05-23T10:52:28;5.55;;;1.48;;
7487;SDS011;3785;52.260;4.728;2023-05-23T10:55:59;3.50;;;1.30;;
7487;SDS011;3785;52.260;4.728;2023-05-23T10:59:20;5.75;;;1.20;;
7487;SDS011;3785;52.260;4.728;2023-05-23T11:03:03;6.28;;;1.30;;
7487;SDS011;3785;52.260;4.728;2023-05-23T11:06:37;6.60;;;1.30;;
7487;SDS011;3785;52.260;4.728;2023-05-23T11:10:09;6.63;;;1.42;;
7487;SDS011;3785;52.260;4.728;2023-05-23T11:17:14;6.55;;;1.60;;
7487;SDS011;3785;52.260;4.728;2023-05-23T11:20:36;4.20;;;1.40;;
7487;SDS011;3785;52.260;4.728;2023-05-23T11:23:57;5.10;;;1.30;;
7487;SDS011;3785;52.260;4.728;2023-05-23T11:27:37;5.72;;;1.48;;
7487;SDS011;3785;52.260;4.728;2023-05-23T11:30:58;4.65;;;1.10;;
7487;SDS011;3785;52.260;4.728;2023-05-23T11:34:19;4.90;;;1.10;;
7487;SDS011;3785;52.260;4.728;2023-05-23T11:37:41;5.82;;;1.17;;
7487;SDS011;3785;52.260;4.728;2023-05-23T11:41:02;4.32;;;1.40;;
7487;SDS011;3785;52.260;4.728;2023-05-23T11:44:23;3.50;;;1.15;;
7487;SDS011;3785;52.260;4.728;2023-05-23T11:47:44;6.80;;;1.20;;
7487;SDS011;3785;52.260;4.728;2023-05-23T11:51:05;5.43;;;1.50;;
7487;SDS011;3785;52.260;4.728;2023-05-23T11:54:25;5.05;;;1.40;;
7487;SDS011;3785;52.260;4.728;2023-05-23T11:57:46;4.90;;;1.30;;
7487;SDS011;3785;52.260;4.728;2023-05-23T12:01:08;4.03;;;1.20;;
7487;SDS011;3785;52.260;4.728;2023-05-23T12:04:30;5.60;;;1.38;;
7487;SDS011;3785;52.260;4.728;2023-05-23T12:07:51;5.43;;;1.88;;
7487;SDS011;3785;52.260;4.728;2023-05-23T12:11:12;3.60;;;1.30;;
7487;SDS011;3785;52.260;4.728;2023-05-23T12:14:32;7.65;;;1.85;;
7487;SDS011;3785;52.260;4.728;2023-05-23T12:17:53;8.27;;;1.30;;
7487;SDS011;3785;52.260;4.728;2023-05-23T12:21:15;3.83;;;1.13;;
7487;SDS011;3785;52.260;4.728;2023-05-23T12:24:43;9.20;;;1.70;;
7487;SDS011;3785;52.260;4.728;2023-05-23T12:28:05;4.82;;;1.45;;
7487;SDS011;3785;52.260;4.728;2023-05-23T12:31:26;4.93;;;1.73;;
7487;SDS011;3785;52.260;4.728;2023-05-23T12:34:48;4.15;;;1.00;;
7487;SDS011;3785;52.260;4.728;2023-05-23T12:38:08;5.85;;;1.30;;
7487;SDS011;3785;52.260;4.728;2023-05-23T12:41:30;3.78;;;1.27;;
7487;SDS011;3785;52.260;4.728;2023-05-23T12:44:54;4.40;;;1.08;;
7487;SDS011;3785;52.260;4.728;2023-05-23T12:48:15;5.07;;;1.30;;
7487;SDS011;3785;52.260;4.728;2023-05-23T12:51:36;6.13;;;1.48;;
7487;SDS011;3785;52.260;4.728;2023-05-23T12:54:56;6.63;;;1.20;;
7487;SDS011;3785;52.260;4.728;2023-05-23T12:58:17;4.63;;;1.52;;
7487;SDS011;3785;52.260;4.728;2023-05-23T13:01:37;4.38;;;1.35;;
7487;SDS011;3785;52.260;4.728;2023-05-23T13:04:58;8.45;;;1.23;;
7487;SDS011;3785;52.260;4.728;2023-05-23T13:08:18;5.18;;;1.15;;
7487;SDS011;3785;52.260;4.728;2023-05-23T13:11:40;7.85;;;1.20;;
7487;SDS011;3785;52.260;4.728;2023-05-23T13:15:00;6.15;;;1.52;;
7487;SDS011;3785;52.260;4.728;2023-05-23T13:18:21;9.00;;;1.40;;
7487;SDS011;3785;52.260;4.728;2023-05-23T13:21:41;5.10;;;1.10;;
7487;SDS011;3785;52.260;4.728;2023-05-23T13:25:02;3.80;;;1.38;;
7487;SDS011;3785;52.260;4.728;2023-05-23T13:28:23;2.58;;;1.00;;
7487;SDS011;3785;52.260;4.728;2023-05-23T13:31:44;4.80;;;1.35;;
7487;SDS011;3785;52.260;4.728;2023-05-23T13:35:04;4.65;;;1.10;;
7487;SDS011;3785;52.260;4.728;2023-05-23T13:38:25;5.85;;;1.00;;
7487;SDS011;3785;52.260;4.728;2023-05-23T13:41:46;5.13;;;1.48;;
7487;SDS011;3785;52.260;4.728;2023-05-23T13:45:08;5.78;;;1.15;;
7487;SDS011;3785;52.260;4.728;2023-05-23T13:48:28;4.10;;;1.00;;
7487;SDS011;3785;52.260;4.728;2023-05-23T13:51:49;4.72;;;1.10;;
7487;SDS011;3785;52.260;4.728;2023-05-23T13:55:10;2.30;;;0.85;;
7487;SDS011;3785;52.260;4.728;2023-05-23T13:58:30;6.95;;;1.23;;
7487;SDS011;3785;52.260;4.728;2023-05-23T14:01:51;4.95;;;1.08;;
7487;SDS011;3785;52.260;4.728;2023-05-23T14:05:11;6.10;;;1.40;;
7487;SDS011;3785;52.260;4.728;2023-05-23T14:08:32;5.82;;;1.73;;
7487;SDS011;3785;52.260;4.728;2023-05-23T14:11:53;6.05;;;1.27;;
7487;SDS011;3785;52.260;4.728;2023-05-23T14:15:14;3.58;;;1.05;;
7487;SDS011;3785;52.260;4.728;2023-05-23T14:18:35;5.00;;;1.52;;
7487;SDS011;3785;52.260;4.728;2023-05-23T14:21:56;4.28;;;1.38;;
7487;SDS011;3785;52.260;4.728;2023-05-23T14:25:17;6.72;;;2.20;;
7487;SDS011;3785;52.260;4.728;2023-05-23T14:28:37;5.53;;;1.20;;
7487;SDS011;3785;52.260;4.728;2023-05-23T14:31:58;5.15;;;1.20;;
7487;SDS011;3785;52.260;4.728;2023-05-23T14:35:19;3.63;;;1.27;;
7487;SDS011;3785;52.260;4.728;2023-05-23T14:38:42;3.83;;;1.10;;
7487;SDS011;3785;52.260;4.728;2023-05-23T14:42:05;3.50;;;1.23;;
7487;SDS011;3785;52.260;4.728;2023-05-23T14:45:25;7.38;;;1.40;;
7487;SDS011;3785;52.260;4.728;2023-05-23T14:48:46;3.28;;;1.02;;
7487;SDS011;3785;52.260;4.728;2023-05-23T14:52:06;5.45;;;1.20;;
7487;SDS011;3785;52.260;4.728;2023-05-23T14:55:27;4.10;;;1.17;;
7487;SDS011;3785;52.260;4.728;2023-05-23T14:58:47;3.85;;;1.33;;
7487;SDS011;3785;52.260;4.728;2023-05-23T15:02:08;5.88;;;1.33;;
7487;SDS011;3785;52.260;4.728;2023-05-23T15:05:29;2.80;;;0.98;;
7487;SDS011;3785;52.260;4.728;2023-05-23T15:08:49;2.97;;;0.85;;
7487;SDS011;3785;52.260;4.728;2023-05-23T15:12:11;4.93;;;1.20;;
7487;SDS011;3785;52.260;4.728;2023-05-23T15:15:32;6.32;;;1.48;;
7487;SDS011;3785;52.260;4.728;2023-05-23T15:18:56;7.10;;;1.42;;
7487;SDS011;3785;52.260;4.728;2023-05-23T15:22:17;4.18;;;1.40;;
7487;SDS011;3785;52.260;4.728;2023-05-23T15:25:38;4.82;;;1.30;;
7487;SDS011;3785;52.260;4.728;2023-05-23T15:28:58;5.05;;;1.08;;
7487;SDS011;3785;52.260;4.728;2023-05-23T15:32:19;3.20;;;1.00;;
7487;SDS011;3785;52.260;4.728;2023-05-23T15:35:40;6.55;;;1.48;;
7487;SDS011;3785;52.260;4.728;2023-05-23T15:39:01;5.75;;;1.30;;
7487;SDS011;3785;52.260;4.728;2023-05-23T15:42:23;5.47;;;1.00;;
7487;SDS011;3785;52.260;4.728;2023-05-23T15:45:44;3.03;;;1.15;;
7487;SDS011;3785;52.260;4.728;2023-05-23T15:49:04;5.88;;;1.20;;
7487;SDS011;3785;52.260;4.728;2023-05-23T15:52:25;5.05;;;1.05;;
7487;SDS011;3785;52.260;4.728;2023-05-23T15:55:45;4.50;;;1.25;;
7487;SDS011;3785;52.260;4.728;2023-05-23T15:59:06;5.72;;;1.30;;
7487;SDS011;3785;52.260;4.728;2023-05-23T16:02:27;3.53;;;1.17;;
7487;SDS011;3785;52.260;4.728;2023-05-23T16:05:47;4.38;;;1.77;;
7487;SDS011;3785;52.260;4.728;2023-05-23T16:09:08;6.65;;;1.30;;
7487;SDS011;3785;52.260;4.728;2023-05-23T16:12:29;3.55;;;1.10;;
7487;SDS011;3785;52.260;4.728;2023-05-23T16:15:50;2.88;;;1.30;;
7487;SDS011;3785;52.260;4.728;2023-05-23T16:19:11;3.42;;;0.98;;
7487;SDS011;3785;52.260;4.728;2023-05-23T16:22:31;5.88;;;1.05;;
7487;SDS011;3785;52.260;4.728;2023-05-23T16:25:52;3.13;;;0.88;;
7487;SDS011;3785;52.260;4.728;2023-05-23T16:29:12;6.00;;;1.15;;
7487;SDS011;3785;52.260;4.728;2023-05-23T16:32:33;4.43;;;1.10;;
7487;SDS011;3785;52.260;4.728;2023-05-23T16:35:54;4.85;;;1.38;;
7487;SDS011;3785;52.260;4.728;2023-05-23T16:39:14;6.25;;;1.30;;
7487;SDS011;3785;52.260;4.728;2023-05-23T16:42:35;3.17;;;1.08;;
7487;SDS011;3785;52.260;4.728;2023-05-23T16:45:56;3.05;;;1.10;;
7487;SDS011;3785;52.260;4.728;2023-05-23T16:49:16;4.97;;;0.90;;
7487;SDS011;3785;52.260;4.728;2023-05-23T16:52:37;3.95;;;0.90;;
7487;SDS011;3785;52.260;4.728;2023-05-23T16:55:59;3.25;;;0.98;;
7487;SDS011;3785;52.260;4.728;2023-05-23T16:59:19;2.83;;;1.00;;
7487;SDS011;3785;52.260;4.728;2023-05-23T17:02:40;5.97;;;1.20;;
7487;SDS011;3785;52.260;4.728;2023-05-23T17:06:00;2.70;;;0.68;;
7487;SDS011;3785;52.260;4.728;2023-05-23T17:09:21;2.00;;;0.90;;
7487;SDS011;3785;52.260;4.728;2023-05-23T17:12:42;1.92;;;0.70;;
7487;SDS011;3785;52.260;4.728;2023-05-23T17:16:02;3.58;;;0.95;;
7487;SDS011;3785;52.260;4.728;2023-05-23T17:19:23;4.25;;;1.00;;
7487;SDS011;3785;52.260;4.728;2023-05-23T17:22:44;3.97;;;0.93;;
7487;SDS011;3785;52.260;4.728;2023-05-23T17:26:05;4.65;;;0.98;;
7487;SDS011;3785;52.260;4.728;2023-05-23T17:29:25;4.55;;;1.05;;
7487;SDS011;3785;52.260;4.728;2023-05-23T17:32:46;2.53;;;0.85;;
7487;SDS011;3785;52.260;4.728;2023-05-23T17:36:07;1.70;;;0.70;;
7487;SDS011;3785;52.260;4.728;2023-05-23T17:39:27;5.90;;;1.10;;
7487;SDS011;3785;52.260;4.728;2023-05-23T17:42:48;5.03;;;1.00;;
7487;SDS011;3785;52.260;4.728;2023-05-23T17:46:08;3.15;;;1.05;;
7487;SDS011;3785;52.260;4.728;2023-05-23T17:49:29;6.00;;;1.00;;
7487;SDS011;3785;52.260;4.728;2023-05-23T17:52:50;5.90;;;1.38;;
7487;SDS011;3785;52.260;4.728;2023-05-23T17:56:10;4.38;;;1.17;;
7487;SDS011;3785;52.260;4.728;2023-05-23T17:59:31;5.85;;;0.90;;
7487;SDS011;3785;52.260;4.728;2023-05-23T18:02:51;2.65;;;0.77;;
7487;SDS011;3785;52.260;4.728;2023-05-23T18:06:12;5.28;;;1.10;;
7487;SDS011;3785;52.260;4.728;2023-05-23T18:09:33;5.28;;;0.93;;
7487;SDS011;3785;52.260;4.728;2023-05-23T18:12:53;6.53;;;1.10;;
7487;SDS011;3785;52.260;4.728;2023-05-23T18:16:14;4.28;;;0.98;;
7487;SDS011;3785;52.260;4.728;2023-05-23T18:19:34;7.82;;;1.55;;
7487;SDS011;3785;52.260;4.728;2023-05-23T18:22:55;3.88;;;1.10;;
7487;SDS011;3785;52.260;4.728;2023-05-23T18:26:16;2.78;;;0.80;;
7487;SDS011;3785;52.260;4.728;2023-05-23T18:29:36;2.85;;;0.70;;
7487;SDS011;3785;52.260;4.728;2023-05-23T18:32:57;4.47;;;0.90;;
7487;SDS011;3785;52.260;4.728;2023-05-23T18:36:17;3.65;;;1.08;;
7487;SDS011;3785;52.260;4.728;2023-05-23T18:39:38;3.80;;;1.20;;
7487;SDS011;3785;52.260;4.728;2023-05-23T18:42:59;3.30;;;1.27;;
7487;SDS011;3785;52.260;4.728;2023-05-23T18:46:19;6.88;;;1.67;;
7487;SDS011;3785;52.260;4.728;2023-05-23T18:49:40;4.13;;;0.98;;
7487;SDS011;3785;52.260;4.728;2023-05-23T18:53:01;4.55;;;0.90;;
7487;SDS011;3785;52.260;4.728;2023-05-23T18:56:21;4.78;;;1.15;;
7487;SDS011;3785;52.260;4.728;2023-05-23T18:59:42;5.13;;;1.20;;
7487;SDS011;3785;52.260;4.728;2023-05-23T19:03:02;2.92;;;1.10;;
7487;SDS011;3785;52.260;4.728;2023-05-23T19:06:23;4.80;;;1.10;;
7487;SDS011;3785;52.260;4.728;2023-05-23T19:09:44;4.57;;;1.08;;
7487;SDS011;3785;52.260;4.728;2023-05-23T19:13:05;3.28;;;0.98;;
7487;SDS011;3785;52.260;4.728;2023-05-23T19:16:26;7.07;;;1.33;;
7487;SDS011;3785;52.260;4.728;2023-05-23T19:19:47;6.80;;;1.58;;
7487;SDS011;3785;52.260;4.728;2023-05-23T19:23:07;4.75;;;1.50;;
7487;SDS011;3785;52.260;4.728;2023-05-23T19:26:28;3.67;;;1.23;;
7487;SDS011;3785;52.260;4.728;2023-05-23T19:29:48;6.68;;;1.10;;
7487;SDS011;3785;52.260;4.728;2023-05-23T19:33:09;3.17;;;1.08;;
7487;SDS011;3785;52.260;4.728;2023-05-23T19:36:30;2.80;;;1.15;;
7487;SDS011;3785;52.260;4.728;2023-05-23T19:39:52;4.53;;;0.93;;
7487;SDS011;3785;52.260;4.728;2023-05-23T19:43:12;6.18;;;1.30;;
7487;SDS011;3785;52.260;4.728;2023-05-23T19:46:33;7.78;;;1.38;;
7487;SDS011;3785;52.260;4.728;2023-05-23T19:49:53;5.35;;;0.93;;
7487;SDS011;3785;52.260;4.728;2023-05-23T19:53:14;6.45;;;1.17;;
7487;SDS011;3785;52.260;4.728;2023-05-23T19:56:34;6.65;;;0.90;;
7487;SDS011;3785;52.260;4.728;2023-05-23T19:59:55;4.50;;;1.30;;
7487;SDS011;3785;52.260;4.728;2023-05-23T20:03:16;7.30;;;1.48;;
7487;SDS011;3785;52.260;4.728;2023-05-23T20:06:37;5.03;;;1.27;;
7487;SDS011;3785;52.260;4.728;2023-05-23T20:09:58;3.45;;;0.98;;
7487;SDS011;3785;52.260;4.728;2023-05-23T20:13:18;4.40;;;0.98;;
7487;SDS011;3785;52.260;4.728;2023-05-23T20:16:39;3.80;;;1.20;;
7487;SDS011;3785;52.260;4.728;2023-05-23T20:20:00;4.75;;;1.30;;
7487;SDS011;3785;52.260;4.728;2023-05-23T20:23:21;3.92;;;1.13;;
7487;SDS011;3785;52.260;4.728;2023-05-23T20:26:42;4.05;;;1.23;;
7487;SDS011;3785;52.260;4.728;2023-05-23T20:30:03;4.88;;;0.77;;
7487;SDS011;3785;52.260;4.728;2023-05-23T20:33:24;7.55;;;1.63;;
7487;SDS011;3785;52.260;4.728;2023-05-23T20:36:44;6.85;;;1.33;;
7487;SDS011;3785;52.260;4.728;2023-05-23T20:40:05;8.23;;;1.65;;
7487;SDS011;3785;52.260;4.728;2023-05-23T20:43:26;3.67;;;1.00;;
7487;SDS011;3785;52.260;4.728;2023-05-23T20:46:47;6.47;;;1.30;;
7487;SDS011;3785;52.260;4.728;2023-05-23T20:50:09;9.75;;;1.25;;
7487;SDS011;3785;52.260;4.728;2023-05-23T20:53:31;5.90;;;1.48;;
7487;SDS011;3785;52.260;4.728;2023-05-23T20:56:53;3.92;;;1.13;;
7487;SDS011;3785;52.260;4.728;2023-05-23T21:00:13;5.20;;;1.55;;
7487;SDS011;3785;52.260;4.728;2023-05-23T21:03:34;4.18;;;1.27;;
7487;SDS011;3785;52.260;4.728;2023-05-23T21:06:55;4.35;;;1.25;;